createdAt,value
2023-05-25T00:01:03.495Z,16.86
2023-05-25T00:03:05.334Z,16.84
2023-05-25T00:05:09.118Z,16.80
2023-05-25T00:07:12.097Z,16.64
2023-05-25T00:09:13.724Z,16.63
2023-05-25T00:11:15.376Z,16.77
2023-05-25T00:13:17.095Z,16.73
2023-05-25T00:15:21.583Z,16.91
2023-05-25T00:17:23.217Z,16.85
2023-05-25T00:19:24.876Z,16.82
2023-05-25T00:21:29.555Z,16.79
2023-05-25T00:23:32.584Z,16.75
2023-05-25T00:25:34.193Z,16.59
2023-05-25T00:27:35.802Z,16.60
2023-05-25T00:29:37.411Z,16.57
2023-05-25T00:31:39.417Z,16.62
2023-05-25T00:33:41.149Z,16.64
2023-05-25T00:35:43.335Z,16.63
2023-05-25T00:37:45.133Z,16.72
2023-05-25T00:39:48.061Z,16.74
2023-05-25T00:41:49.893Z,16.69
2023-05-25T00:43:51.580Z,16.68
2023-05-25T00:45:54.224Z,16.70
2023-05-25T00:47:56.273Z,16.65
2023-05-25T00:49:58.048Z,16.69
2023-05-25T00:51:59.844Z,16.78
2023-05-25T00:54:02.076Z,16.76
2023-05-25T00:56:10.074Z,16.74
2023-05-25T00:58:13.186Z,16.81
2023-05-25T01:00:17.691Z,16.83
2023-05-25T01:02:21.326Z,16.83
2023-05-25T01:04:24.098Z,16.85
2023-05-25T01:06:30.290Z,16.89
2023-05-25T01:08:35.593Z,16.90
2023-05-25T01:10:39.477Z,17.00
2023-05-25T01:12:44.814Z,17.06
2023-05-25T01:14:47.385Z,17.03
2023-05-25T01:16:49.599Z,17.00
2023-05-25T01:18:51.410Z,16.99
2023-05-25T01:21:04.120Z,16.93
2023-05-25T01:23:13.175Z,16.74
2023-05-25T01:25:18.733Z,16.60
2023-05-25T01:27:25.044Z,16.53
2023-05-25T01:29:32.041Z,16.39
2023-05-25T01:31:35.647Z,16.25
2023-05-25T01:33:38.460Z,16.18
2023-05-25T01:35:41.913Z,16.02
2023-05-25T01:37:47.187Z,15.97
2023-05-25T01:39:48.837Z,15.92
2023-05-25T01:41:50.520Z,15.92
2023-05-25T01:43:53.054Z,15.82
2023-05-25T01:46:02.545Z,15.73
2023-05-25T01:48:11.835Z,15.64
2023-05-25T01:50:21.702Z,15.64
2023-05-25T01:52:28.603Z,15.60
2023-05-25T01:54:36.962Z,15.56
2023-05-25T01:56:40.019Z,15.52
2023-05-25T01:58:44.464Z,15.51
2023-05-25T02:00:47.924Z,15.51
2023-05-25T02:02:52.516Z,15.55
2023-05-25T02:04:54.775Z,15.58
2023-05-25T02:06:56.888Z,15.60
2023-05-25T02:08:58.637Z,15.62
2023-05-25T02:11:02.012Z,15.62
2023-05-25T02:13:03.902Z,15.64
2023-05-25T02:15:06.710Z,15.49
2023-05-25T02:17:10.812Z,15.53
2023-05-25T02:19:12.891Z,15.49
2023-05-25T02:21:14.490Z,15.44
2023-05-25T02:23:16.157Z,15.41
2023-05-25T02:25:17.839Z,15.39
2023-05-25T02:27:20.931Z,15.40
2023-05-25T02:29:22.575Z,15.30
2023-05-25T02:31:24.213Z,15.30
2023-05-25T02:33:25.803Z,15.29
2023-05-25T02:35:27.470Z,15.30
2023-05-25T02:37:29.202Z,15.30
2023-05-25T02:39:33.666Z,15.27
2023-05-25T02:41:35.296Z,15.30
2023-05-25T02:43:38.301Z,15.37
2023-05-25T02:45:39.860Z,15.39
2023-05-25T02:47:41.529Z,15.30
2023-05-25T02:49:43.187Z,15.24
2023-05-25T02:51:44.874Z,15.17
2023-05-25T02:53:46.582Z,15.09
2023-05-25T02:55:48.163Z,15.10
2023-05-25T02:57:49.788Z,15.06
2023-05-25T02:59:52.832Z,15.01
2023-05-25T03:01:54.419Z,14.99
2023-05-25T03:03:56.667Z,14.99
2023-05-25T03:05:58.321Z,14.93
2023-05-25T03:07:59.921Z,14.97
2023-05-25T03:10:01.635Z,14.99
2023-05-25T03:12:03.924Z,14.93
2023-05-25T03:14:05.662Z,14.94
2023-05-25T03:16:08.778Z,14.98
2023-05-25T03:18:10.445Z,15.00
2023-05-25T03:20:12.781Z,15.04
2023-05-25T03:22:14.515Z,15.06
2023-05-25T03:24:16.223Z,15.02
2023-05-25T03:26:17.815Z,14.92
2023-05-25T03:28:19.388Z,14.87
2023-05-25T03:30:22.067Z,14.85
2023-05-25T03:32:25.239Z,14.83
2023-05-25T03:34:27.004Z,14.83
2023-05-25T03:36:28.639Z,14.74
2023-05-25T03:38:30.257Z,14.72
2023-05-25T03:40:31.855Z,14.64
2023-05-25T03:42:33.464Z,14.65
2023-05-25T03:44:35.062Z,14.60
2023-05-25T03:46:37.239Z,14.59
2023-05-25T03:48:40.298Z,14.55
2023-05-25T03:50:41.884Z,14.56
2023-05-25T03:52:43.463Z,14.54
2023-05-25T03:54:50.651Z,14.52
2023-05-25T03:56:52.242Z,14.52
2023-05-25T03:58:53.809Z,14.55
2023-05-25T04:00:55.410Z,14.56
2023-05-25T04:02:57.269Z,14.56
2023-05-25T04:05:00.366Z,14.60
2023-05-25T04:07:02.051Z,14.68
2023-05-25T04:09:04.227Z,14.73
2023-05-25T04:11:05.796Z,14.70
2023-05-25T04:13:10.489Z,14.68
2023-05-25T04:15:12.249Z,14.68
2023-05-25T04:17:13.799Z,14.69
2023-05-25T04:19:15.499Z,14.71
2023-05-25T04:21:18.582Z,14.77
2023-05-25T04:23:20.158Z,14.84
2023-05-25T04:25:21.761Z,14.88
2023-05-25T04:27:23.561Z,14.92
2023-05-25T04:29:25.233Z,14.93
2023-05-25T04:31:26.928Z,14.93
2023-05-25T04:33:28.723Z,14.94
2023-05-25T04:35:30.399Z,15.08
2023-05-25T04:37:33.877Z,15.19
2023-05-25T04:39:35.507Z,15.30
2023-05-25T04:41:37.070Z,15.37
2023-05-25T04:43:40.412Z,15.42
2023-05-25T04:45:48.047Z,15.49
2023-05-25T04:47:49.836Z,15.51
2023-05-25T04:49:51.604Z,15.52
2023-05-25T04:51:53.489Z,15.53
2023-05-25T04:53:56.456Z,15.59
2023-05-25T04:55:58.167Z,15.65
2023-05-25T04:57:59.911Z,15.69
2023-05-25T05:00:01.592Z,15.76
2023-05-25T05:02:03.435Z,15.78
2023-05-25T05:04:05.407Z,15.76
2023-05-25T05:06:07.167Z,15.70
2023-05-25T05:08:08.813Z,15.63
2023-05-25T05:10:12.005Z,15.58
2023-05-25T05:12:13.808Z,15.54
2023-05-25T05:14:15.887Z,15.57
2023-05-25T05:16:17.557Z,15.64
2023-05-25T05:18:19.245Z,15.72
2023-05-25T05:20:21.049Z,15.75
2023-05-25T05:22:22.715Z,15.75
2023-05-25T05:24:24.371Z,15.79
2023-05-25T05:26:27.407Z,15.82
2023-05-25T05:28:29.511Z,15.85
2023-05-25T05:30:33.979Z,15.96
2023-05-25T05:32:35.709Z,15.98
2023-05-25T05:34:37.368Z,16.06
2023-05-25T05:36:52.678Z,16.11
2023-05-25T05:38:58.728Z,16.11
2023-05-25T05:41:00.334Z,16.15
2023-05-25T05:43:03.325Z,16.22
2023-05-25T05:45:06.019Z,16.31
2023-05-25T05:47:07.713Z,16.32
2023-05-25T05:49:09.345Z,16.38
2023-05-25T05:51:11.304Z,16.39
2023-05-25T05:53:12.896Z,16.33
2023-05-25T05:55:14.500Z,16.23
2023-05-25T05:57:16.167Z,16.18
2023-05-25T05:59:20.872Z,16.21
2023-05-25T06:01:22.619Z,16.28
2023-05-25T06:03:24.282Z,16.26
2023-05-25T06:05:25.960Z,16.31
2023-05-25T06:07:27.638Z,16.37
2023-05-25T06:09:29.305Z,16.38
2023-05-25T06:11:30.919Z,16.45
2023-05-25T06:13:32.532Z,16.45
2023-05-25T06:15:35.706Z,16.55
2023-05-25T06:17:37.396Z,16.62
2023-05-25T06:19:39.061Z,16.70
2023-05-25T06:21:40.670Z,16.81
2023-05-25T06:23:42.263Z,16.86
2023-05-25T06:25:44.397Z,16.85
2023-05-25T06:27:46.505Z,16.89
2023-05-25T06:29:48.134Z,16.88
2023-05-25T06:31:51.178Z,17.00
2023-05-25T06:33:52.893Z,17.11
2023-05-25T06:35:56.332Z,17.16
2023-05-25T06:37:58.168Z,17.21
2023-05-25T06:39:59.867Z,17.25
2023-05-25T06:42:01.484Z,17.36
2023-05-25T06:44:03.126Z,17.45
2023-05-25T06:46:04.894Z,17.54
2023-05-25T06:48:08.001Z,17.70
2023-05-25T06:50:10.216Z,17.85
2023-05-25T06:52:11.952Z,17.95
2023-05-25T06:54:13.605Z,18.04
2023-05-25T06:56:15.181Z,18.14
2023-05-25T06:58:16.992Z,18.26
2023-05-25T07:00:21.835Z,18.40
2023-05-25T07:02:23.513Z,18.57
2023-05-25T07:04:26.555Z,18.65
2023-05-25T07:06:29.522Z,18.73
2023-05-25T07:08:31.147Z,18.84
2023-05-25T07:10:33.582Z,18.96
2023-05-25T07:12:35.158Z,19.05
2023-05-25T07:14:37.140Z,19.13
2023-05-25T07:16:38.862Z,19.27
2023-05-25T07:18:40.500Z,19.30
2023-05-25T07:20:44.023Z,19.15
2023-05-25T07:22:47.330Z,18.95
2023-05-25T07:24:49.609Z,19.20
2023-05-25T07:26:51.231Z,19.06
2023-05-25T07:28:52.969Z,18.91
2023-05-25T07:30:54.605Z,18.88
2023-05-25T07:32:56.282Z,19.00
2023-05-25T07:34:57.976Z,18.99
2023-05-25T07:37:01.048Z,19.29
2023-05-25T07:39:05.181Z,20.11
2023-05-25T07:41:07.497Z,20.60
2023-05-25T07:43:09.240Z,20.82
2023-05-25T07:45:11.599Z,20.90
2023-05-25T07:47:13.413Z,20.96
2023-05-25T07:49:15.136Z,21.10
2023-05-25T07:51:16.938Z,21.23
2023-05-25T07:53:19.943Z,21.32
2023-05-25T07:55:21.718Z,21.20
2023-05-25T07:57:23.377Z,21.23
2023-05-25T07:59:26.480Z,21.41
2023-05-25T08:01:28.145Z,21.49
2023-05-25T08:03:47.396Z,21.69
2023-05-25T08:05:51.185Z,21.65
2023-05-25T08:07:52.873Z,21.79
2023-05-25T08:09:55.899Z,21.88
2023-05-25T08:12:18.711Z,21.91
2023-05-25T08:14:21.707Z,21.99
2023-05-25T08:16:23.371Z,22.07
2023-05-25T08:18:25.133Z,22.11
2023-05-25T08:20:26.801Z,22.16
2023-05-25T08:22:28.771Z,22.12
2023-05-25T08:24:30.513Z,22.12
2023-05-25T08:26:52.364Z,21.90
2023-05-25T08:28:55.115Z,21.87
2023-05-25T08:30:56.828Z,21.97
2023-05-25T08:32:58.633Z,22.14
2023-05-25T08:35:00.346Z,22.25
2023-05-25T08:37:02.038Z,22.28
2023-05-25T08:39:04.120Z,22.31
2023-05-25T08:41:07.171Z,22.26
2023-05-25T08:43:10.389Z,22.35
2023-05-25T08:45:22.615Z,22.34
2023-05-25T08:47:31.613Z,22.40
2023-05-25T08:49:35.466Z,22.47
2023-05-25T08:51:39.064Z,22.49
2023-05-25T08:53:43.491Z,22.52
2023-05-25T08:55:47.525Z,22.58
2023-05-25T08:57:54.802Z,22.70
2023-05-25T09:00:03.704Z,22.75
2023-05-25T09:02:21.223Z,22.73
2023-05-25T09:04:23.642Z,22.74
2023-05-25T09:06:26.064Z,22.85
2023-05-25T09:08:28.055Z,22.92
2023-05-25T09:10:31.332Z,22.92
2023-05-25T09:12:33.396Z,22.95
2023-05-25T09:14:35.552Z,23.04
2023-05-25T09:16:38.828Z,22.98
2023-05-25T09:18:40.625Z,23.02
2023-05-25T09:20:44.352Z,23.08
2023-05-25T09:22:48.125Z,23.10
2023-05-25T09:24:49.903Z,23.15
2023-05-25T09:26:51.902Z,23.14
2023-05-25T09:28:53.534Z,23.10
2023-05-25T09:30:56.446Z,23.06
2023-05-25T09:33:09.872Z,22.88
2023-05-25T09:35:13.299Z,22.87
2023-05-25T09:37:16.201Z,22.78
2023-05-25T09:39:18.275Z,22.83
2023-05-25T09:41:20.298Z,22.82
2023-05-25T09:43:36.434Z,22.86
2023-05-25T09:45:42.274Z,22.92
2023-05-25T09:47:44.048Z,23.04
2023-05-25T09:49:47.133Z,23.13
2023-05-25T09:51:49.561Z,23.05
2023-05-25T09:53:51.424Z,23.00
2023-05-25T09:55:54.504Z,22.83
2023-05-25T09:57:57.086Z,22.71
2023-05-25T09:59:59.025Z,22.67
2023-05-25T10:02:01.123Z,22.82
2023-05-25T10:04:04.669Z,22.94
2023-05-25T10:06:08.605Z,22.83
2023-05-25T10:08:11.377Z,22.88
2023-05-25T10:10:14.825Z,22.83
2023-05-25T10:12:19.803Z,22.95
2023-05-25T10:14:29.092Z,23.06
2023-05-25T10:16:34.126Z,23.09
2023-05-25T10:18:39.919Z,23.04
2023-05-25T10:20:42.256Z,22.98
2023-05-25T10:22:51.653Z,23.01
2023-05-25T10:24:57.061Z,23.08
2023-05-25T10:29:25.292Z,23.11
2023-05-25T10:31:27.554Z,23.04
2023-05-25T10:35:46.863Z,23.06
2023-05-25T10:37:58.883Z,22.94
2023-05-25T10:40:02.106Z,23.04
2023-05-25T10:42:07.527Z,23.12
2023-05-25T10:44:09.943Z,23.24
2023-05-25T10:46:11.951Z,23.23
2023-05-25T10:48:14.370Z,23.31
2023-05-25T10:50:20.497Z,23.40
2023-05-25T11:10:15.233Z,23.63
2023-05-25T11:12:20.700Z,23.87
2023-05-25T11:14:23.314Z,23.88
2023-05-25T11:16:32.087Z,23.97
2023-05-25T11:18:37.755Z,23.83
2023-05-25T11:20:39.500Z,23.81
2023-05-25T11:22:41.295Z,23.90
2023-05-25T11:24:43.145Z,24.00
2023-05-25T11:26:59.909Z,24.07
2023-05-25T11:29:12.028Z,24.11
2023-05-25T11:31:13.976Z,24.14
2023-05-25T11:33:15.953Z,24.16
2023-05-25T11:35:17.739Z,24.31
2023-05-25T11:37:20.900Z,24.55
2023-05-25T11:39:25.137Z,24.86
2023-05-25T11:41:27.087Z,24.92
2023-05-25T11:43:33.792Z,24.94
2023-05-25T11:45:35.450Z,25.01
2023-05-25T11:47:38.151Z,24.99
2023-05-25T11:49:40.684Z,24.99
2023-05-25T11:51:43.310Z,24.95
2023-05-25T11:53:45.622Z,25.01
2023-05-25T11:55:50.917Z,25.02
2023-05-25T11:57:56.517Z,25.06
2023-05-25T12:00:00.760Z,24.90
2023-05-25T12:02:04.212Z,24.85
2023-05-25T12:04:09.066Z,24.71
2023-05-25T12:06:23.842Z,24.78
2023-05-25T12:08:32.311Z,24.88
2023-05-25T12:10:34.300Z,24.88
2023-05-25T12:12:41.270Z,24.87
2023-05-25T12:14:47.635Z,24.77
2023-05-25T12:16:51.229Z,24.93
2023-05-25T12:18:54.953Z,25.12
2023-05-25T12:20:56.758Z,25.37
2023-05-25T12:22:58.569Z,25.65
2023-05-25T12:25:00.307Z,26.07
2023-05-25T12:27:01.950Z,26.56
2023-05-25T12:29:05.482Z,26.93
2023-05-25T12:31:23.488Z,27.39
2023-05-25T12:33:26.659Z,27.60
2023-05-25T12:35:28.345Z,27.85
2023-05-25T12:37:30.013Z,28.11
2023-05-25T12:39:33.999Z,28.20
2023-05-25T12:41:54.601Z,28.56
2023-05-25T12:43:57.134Z,28.73
2023-05-25T12:45:58.849Z,29.24
2023-05-25T12:48:02.206Z,29.57
2023-05-25T12:50:14.265Z,29.97
2023-05-25T12:52:34.505Z,30.22
2023-05-25T12:54:41.781Z,30.48
2023-05-25T12:56:55.827Z,30.52
2023-05-25T12:59:14.190Z,30.67
2023-05-25T13:01:15.824Z,30.83
2023-05-25T13:03:17.805Z,30.92
2023-05-25T13:05:24.661Z,31.18
2023-05-25T13:07:26.288Z,31.27
2023-05-25T13:09:28.328Z,31.55
2023-05-25T13:11:29.965Z,31.72
2023-05-25T13:13:31.678Z,32.04
2023-05-25T13:15:33.512Z,32.19
2023-05-25T13:17:35.232Z,32.11
2023-05-25T13:19:36.934Z,32.28
2023-05-25T13:21:40.034Z,32.41
2023-05-25T13:23:41.931Z,32.33
2023-05-25T13:25:43.554Z,32.34
2023-05-25T13:27:46.766Z,32.13
2023-05-25T13:29:48.557Z,32.21
2023-05-25T13:31:50.222Z,32.21
2023-05-25T13:33:51.917Z,32.45
2023-05-25T13:35:53.523Z,32.40
2023-05-25T13:37:56.502Z,32.45
2023-05-25T13:39:58.155Z,32.66
2023-05-25T13:41:59.803Z,32.82
2023-05-25T13:44:01.432Z,32.82
2023-05-25T13:46:03.193Z,32.67
2023-05-25T13:48:05.057Z,32.48
2023-05-25T13:50:07.400Z,32.45
2023-05-25T13:52:09.052Z,32.48
2023-05-25T13:54:12.034Z,32.69
2023-05-25T13:56:13.632Z,32.56
2023-05-25T13:58:15.306Z,32.04
2023-05-25T14:00:17.533Z,32.00
2023-05-25T14:02:19.225Z,32.01
2023-05-25T14:04:21.059Z,32.03
2023-05-25T14:06:22.663Z,31.69
2023-05-25T14:08:24.319Z,31.32
2023-05-25T14:10:27.327Z,31.13
2023-05-25T14:12:28.948Z,31.04
2023-05-25T14:14:31.903Z,30.86
2023-05-25T14:16:34.404Z,30.70
2023-05-25T14:18:36.108Z,30.58
2023-05-25T14:20:38.216Z,30.27
2023-05-25T14:22:39.940Z,29.93
2023-05-25T14:24:42.043Z,29.77
2023-05-25T14:26:45.137Z,29.57
2023-05-25T14:28:46.773Z,29.37
2023-05-25T14:30:48.402Z,29.30
2023-05-25T14:32:50.535Z,29.18
2023-05-25T14:34:52.239Z,28.95
2023-05-25T14:36:53.829Z,28.78
2023-05-25T14:38:55.419Z,28.68
2023-05-25T14:40:57.087Z,28.71
2023-05-25T14:43:00.128Z,28.78
2023-05-25T14:45:02.234Z,28.72
2023-05-25T14:47:04.592Z,28.64
2023-05-25T14:49:06.368Z,28.54
2023-05-25T14:51:08.072Z,28.38
2023-05-25T14:53:09.745Z,28.29
2023-05-25T14:55:11.386Z,28.15
2023-05-25T14:57:13.129Z,28.09
2023-05-25T14:59:16.164Z,27.96
2023-05-25T15:01:17.843Z,27.92
2023-05-25T15:03:19.677Z,27.90
2023-05-25T15:05:21.446Z,27.79
2023-05-25T15:07:23.171Z,27.75
2023-05-25T15:09:24.791Z,27.73
2023-05-25T15:11:26.679Z,27.70
2023-05-25T15:13:28.284Z,27.52
2023-05-25T15:15:31.202Z,27.40
2023-05-25T15:17:32.986Z,27.33
2023-05-25T15:19:34.697Z,27.28
2023-05-25T15:21:36.283Z,27.18
2023-05-25T15:23:37.976Z,27.14
2023-05-25T15:25:39.712Z,27.09
2023-05-25T15:27:41.301Z,26.89
2023-05-25T15:29:42.916Z,26.84
2023-05-25T15:31:46.099Z,26.71
2023-05-25T15:33:56.331Z,26.71
2023-05-25T15:36:00.167Z,26.71
2023-05-25T15:38:01.882Z,26.71
2023-05-25T15:40:03.907Z,26.70
2023-05-25T15:42:06.383Z,26.57
2023-05-25T15:44:08.017Z,26.43
2023-05-25T15:46:09.732Z,26.46
2023-05-25T15:48:12.953Z,26.50
2023-05-25T15:50:14.672Z,26.45
2023-05-25T15:52:16.330Z,26.44
2023-05-25T15:54:17.947Z,26.47
2023-05-25T15:56:19.525Z,26.42
2023-05-25T15:58:21.191Z,26.42
2023-05-25T16:00:23.281Z,26.47
2023-05-25T16:02:24.976Z,26.44
2023-05-25T16:04:28.082Z,26.41
2023-05-25T16:06:29.968Z,26.44
2023-05-25T16:08:31.705Z,26.50
2023-05-25T16:10:33.347Z,26.49
2023-05-25T16:12:35.390Z,26.52
2023-05-25T16:14:37.056Z,26.49
2023-05-25T16:16:38.779Z,26.53
2023-05-25T16:18:40.458Z,26.56
2023-05-25T16:20:43.585Z,26.46
2023-05-25T16:22:45.264Z,26.43
2023-05-25T16:24:47.149Z,26.41
2023-05-25T16:26:48.796Z,26.38
2023-05-25T16:28:50.487Z,26.20
2023-05-25T16:30:52.393Z,26.01
2023-05-25T16:32:54.116Z,25.82
2023-05-25T16:34:55.796Z,25.61
2023-05-25T16:36:58.846Z,25.80
2023-05-25T16:39:00.701Z,25.92
2023-05-25T16:41:02.327Z,25.98
2023-05-25T16:43:04.161Z,26.04
2023-05-25T16:45:07.208Z,26.03
2023-05-25T16:47:08.889Z,26.07
2023-05-25T16:49:10.557Z,26.03
2023-05-25T16:51:12.310Z,26.06
2023-05-25T16:53:15.441Z,26.07
2023-05-25T16:55:17.132Z,26.14
2023-05-25T16:57:18.847Z,26.21
2023-05-25T16:59:20.456Z,26.19
2023-05-25T17:01:22.313Z,26.22
2023-05-25T17:03:24.134Z,26.29
2023-05-25T17:05:25.904Z,26.22
2023-05-25T17:07:27.670Z,26.23
2023-05-25T17:09:30.651Z,26.12
2023-05-25T17:11:32.179Z,26.10
2023-05-25T17:13:33.897Z,26.14
2023-05-25T17:15:35.555Z,26.20
2023-05-25T17:17:37.199Z,26.20
2023-05-25T17:19:38.965Z,26.19
2023-05-25T17:21:40.842Z,26.18
2023-05-25T17:23:42.463Z,26.15
2023-05-25T17:25:45.681Z,26.16
2023-05-25T17:27:47.666Z,26.11
2023-05-25T17:29:49.371Z,25.97
2023-05-25T17:31:51.317Z,25.91
2023-05-25T17:33:52.977Z,25.76
2023-05-25T17:35:54.598Z,25.71
2023-05-25T17:37:56.397Z,25.67
2023-05-25T17:39:58.056Z,25.63
2023-05-25T17:42:01.141Z,25.65
2023-05-25T17:44:05.656Z,25.63
2023-05-25T17:46:07.699Z,25.60
2023-05-25T17:48:11.950Z,25.58
2023-05-25T17:50:13.808Z,25.63
2023-05-25T17:52:15.544Z,25.61
2023-05-25T17:54:17.261Z,25.64
2023-05-25T17:56:18.975Z,25.54
2023-05-25T17:58:22.184Z,25.51
2023-05-25T18:00:24.137Z,25.50
2023-05-25T18:02:26.050Z,25.54
2023-05-25T18:04:27.933Z,25.49
2023-05-25T18:06:29.855Z,25.37
2023-05-25T18:08:31.477Z,25.36
2023-05-25T18:10:33.105Z,25.40
2023-05-25T18:12:34.726Z,25.40
2023-05-25T18:14:37.743Z,25.30
2023-05-25T18:16:39.556Z,25.31
2023-05-25T18:18:41.354Z,25.29
2023-05-25T18:20:43.229Z,25.25
2023-05-25T18:22:44.974Z,25.21
2023-05-25T18:24:46.615Z,25.24
2023-05-25T18:26:48.493Z,25.32
2023-05-25T18:28:50.112Z,25.24
2023-05-25T18:30:53.305Z,25.20
2023-05-25T18:32:55.043Z,25.03
2023-05-25T18:34:57.469Z,25.02
2023-05-25T18:36:59.176Z,25.06
2023-05-25T18:39:00.809Z,25.02
2023-05-25T18:41:02.631Z,24.86
2023-05-25T18:43:04.300Z,24.85
2023-05-25T18:45:06.866Z,24.89
2023-05-25T18:47:09.890Z,24.99
2023-05-25T18:49:11.589Z,25.02
2023-05-25T18:51:13.234Z,25.05
2023-05-25T18:53:14.985Z,25.13
2023-05-25T18:55:17.347Z,25.16
2023-05-25T18:57:19.018Z,25.20
2023-05-25T18:59:20.661Z,25.22
2023-05-25T19:01:23.619Z,25.24
2023-05-25T19:03:27.886Z,25.25
2023-05-25T19:05:29.613Z,25.30
2023-05-25T19:07:31.227Z,25.31
2023-05-25T19:09:32.889Z,25.30
2023-05-25T19:11:34.474Z,25.26
2023-05-25T19:13:36.184Z,25.25
2023-05-25T19:15:37.919Z,25.24
2023-05-25T19:17:39.633Z,25.14
2023-05-25T19:19:42.711Z,25.04
2023-05-25T19:21:44.387Z,24.93
2023-05-25T19:23:46.067Z,24.88
2023-05-25T19:25:47.938Z,24.79
2023-05-25T19:27:49.761Z,24.79
2023-05-25T19:29:51.418Z,24.71
2023-05-25T19:31:53.076Z,24.64
2023-05-25T19:33:54.839Z,24.53
2023-05-25T19:35:57.850Z,24.44
2023-05-25T19:38:01.188Z,24.31
2023-05-25T19:40:04.034Z,24.19
2023-05-25T19:42:05.918Z,24.07
2023-05-25T19:44:07.658Z,23.91
2023-05-25T19:46:09.582Z,23.68
2023-05-25T19:48:11.478Z,23.58
2023-05-25T19:50:13.516Z,23.50
2023-05-25T19:52:17.107Z,23.50
2023-05-25T19:54:21.360Z,23.40
2023-05-25T19:56:22.962Z,23.46
2023-05-25T19:58:24.850Z,23.39
2023-05-25T20:00:27.361Z,23.29
2023-05-25T20:02:29.254Z,23.20
2023-05-25T20:04:31.086Z,23.04
2023-05-25T20:06:32.713Z,23.02
2023-05-25T20:08:36.926Z,23.11
2023-05-25T20:10:38.857Z,23.04
2023-05-25T20:12:40.496Z,22.74
2023-05-25T20:14:43.628Z,22.75
2023-05-25T20:16:45.306Z,22.77
2023-05-25T20:18:47.002Z,22.83
2023-05-25T20:20:48.676Z,22.89
2023-05-25T20:22:50.550Z,22.88
2023-05-25T20:24:53.535Z,22.96
2023-05-25T20:26:55.455Z,22.99
2023-05-25T20:28:57.398Z,22.91
2023-05-25T20:30:59.100Z,22.91
2023-05-25T20:33:00.805Z,22.85
2023-05-25T20:35:02.572Z,22.83
2023-05-25T20:37:04.282Z,22.85
2023-05-25T20:39:05.923Z,22.90
2023-05-25T20:41:09.526Z,22.90
2023-05-25T20:43:11.186Z,22.85
2023-05-25T20:45:12.872Z,22.75
2023-05-25T20:47:14.539Z,22.60
2023-05-25T20:49:16.656Z,22.52
2023-05-25T20:51:18.272Z,22.45
2023-05-25T20:53:19.924Z,22.43
2023-05-25T20:55:21.658Z,22.28
2023-05-25T20:57:24.647Z,22.22
2023-05-25T20:59:26.292Z,22.11
2023-05-25T21:01:27.973Z,22.15
2023-05-25T21:03:29.741Z,22.18
2023-05-25T21:05:31.615Z,22.15
2023-05-25T21:07:33.253Z,21.88
2023-05-25T21:09:34.904Z,21.75
2023-05-25T21:11:36.554Z,21.63
2023-05-25T21:13:39.540Z,21.80
2023-05-25T21:15:41.200Z,21.74
2023-05-25T21:17:42.845Z,21.76
2023-05-25T21:19:44.435Z,21.68
2023-05-25T21:21:46.048Z,21.82
2023-05-25T21:23:47.739Z,21.89
2023-05-25T21:25:49.368Z,21.94
2023-05-25T21:27:51.165Z,21.90
2023-05-25T21:29:54.417Z,21.95
2023-05-25T21:31:56.044Z,21.94
2023-05-25T21:33:58.842Z,21.80
2023-05-25T21:36:01.907Z,21.77
2023-05-25T21:38:03.537Z,21.95
2023-05-25T21:40:08.226Z,21.88
2023-05-25T21:42:10.052Z,21.84
2023-05-25T21:44:11.873Z,21.77
2023-05-25T21:46:14.841Z,21.77
2023-05-25T21:48:16.552Z,21.66
2023-05-25T21:50:18.762Z,21.65
2023-05-25T21:52:20.661Z,21.66
2023-05-25T21:54:22.305Z,21.69
2023-05-25T21:56:24.059Z,21.73
2023-05-25T21:58:25.677Z,21.63
2023-05-25T22:00:27.541Z,21.66
2023-05-25T22:02:30.583Z,21.70
2023-05-25T22:04:32.361Z,21.70
2023-05-25T22:06:34.027Z,21.72
2023-05-25T22:08:35.726Z,21.62
2023-05-25T22:10:38.292Z,21.66
2023-05-25T22:12:39.950Z,21.61
2023-05-25T22:14:41.523Z,21.55
2023-05-25T22:16:43.307Z,21.43
2023-05-25T22:18:46.309Z,21.17
2023-05-25T22:20:47.940Z,21.06
2023-05-25T22:22:49.639Z,21.14
2023-05-25T22:24:51.538Z,21.22
2023-05-25T22:26:53.141Z,21.25
2023-05-25T22:28:54.893Z,21.22
2023-05-25T22:30:56.707Z,21.17
2023-05-25T22:32:58.512Z,21.16
2023-05-25T22:35:01.661Z,21.21
2023-05-25T22:37:03.421Z,21.21
2023-05-25T22:39:05.052Z,21.24
2023-05-25T22:41:07.219Z,21.23
2023-05-25T22:43:08.905Z,21.19
2023-05-25T22:45:11.080Z,21.18
2023-05-25T22:47:13.048Z,21.04
2023-05-25T22:49:14.778Z,21.14
2023-05-25T22:51:17.790Z,21.13
2023-05-25T22:53:19.391Z,20.91
2023-05-25T22:55:21.244Z,20.82
2023-05-25T22:57:22.844Z,20.85
2023-05-25T22:59:24.433Z,20.91
2023-05-25T23:01:26.110Z,20.96
2023-05-25T23:03:27.881Z,20.84
2023-05-25T23:05:29.672Z,20.70
2023-05-25T23:07:32.723Z,20.68
2023-05-25T23:09:34.339Z,20.74
2023-05-25T23:11:35.992Z,20.79
2023-05-25T23:13:37.614Z,20.79
2023-05-25T23:15:39.641Z,20.76
2023-05-25T23:17:41.380Z,20.77
2023-05-25T23:19:43.188Z,20.77
2023-05-25T23:21:44.823Z,20.76
2023-05-25T23:23:48.114Z,20.70
2023-05-25T23:25:50.077Z,20.74
2023-05-25T23:27:51.924Z,20.75
2023-05-25T23:29:53.698Z,20.72
2023-05-25T23:31:55.376Z,20.70
2023-05-25T23:33:57.107Z,20.66
2023-05-25T23:35:59.050Z,20.65
2023-05-25T23:38:00.733Z,20.66
2023-05-25T23:40:05.099Z,20.59
2023-05-25T23:42:07.391Z,20.55
2023-05-25T23:44:09.035Z,20.55
2023-05-25T23:46:10.721Z,20.45
2023-05-25T23:48:12.484Z,20.33
2023-05-25T23:50:14.155Z,20.30
2023-05-25T23:52:15.920Z,20.25
2023-05-25T23:54:17.505Z,20.22
2023-05-25T23:56:20.606Z,20.22
2023-05-25T23:58:22.184Z,20.18
